createdAt,value
2023-03-22T00:02:15.175Z,11.61
2023-03-22T00:04:42.927Z,11.55
2023-03-22T00:07:10.052Z,11.39
2023-03-22T00:09:36.695Z,11.41
2023-03-22T00:12:03.515Z,11.64
2023-03-22T00:14:30.051Z,11.27
2023-03-22T00:16:56.652Z,11.39
2023-03-22T00:19:27.101Z,11.17
2023-03-22T00:21:53.563Z,11.20
2023-03-22T00:24:21.539Z,11.16
2023-03-22T00:26:48.528Z,11.16
2023-03-22T00:29:15.057Z,11.16
2023-03-22T00:31:41.585Z,10.98
2023-03-22T00:34:08.368Z,11.17
2023-03-22T00:36:34.834Z,11.01
2023-03-22T00:39:01.277Z,10.74
2023-03-22T00:41:27.970Z,10.77
2023-03-22T00:43:54.573Z,10.63
2023-03-22T00:46:21.821Z,10.94
2023-03-22T00:48:48.905Z,10.57
2023-03-22T00:51:16.183Z,10.86
2023-03-22T00:53:43.648Z,10.70
2023-03-22T00:56:14.270Z,10.72
2023-03-22T00:58:41.788Z,10.77
2023-03-22T01:01:08.642Z,10.64
2023-03-22T01:03:35.255Z,10.60
2023-03-22T01:06:01.847Z,10.58
2023-03-22T01:08:33.122Z,10.65
2023-03-22T01:11:00.883Z,10.50
2023-03-22T01:13:27.669Z,10.61
2023-03-22T01:15:54.142Z,10.77
2023-03-22T01:18:20.605Z,10.43
2023-03-22T01:20:47.095Z,10.58
2023-03-22T01:23:13.608Z,10.28
2023-03-22T01:25:40.119Z,10.72
2023-03-22T01:28:07.754Z,10.82
2023-03-22T01:30:34.574Z,10.78
2023-03-22T01:33:01.042Z,10.44
2023-03-22T01:35:27.609Z,10.57
2023-03-22T01:37:54.160Z,10.63
2023-03-22T01:40:21.013Z,10.61
2023-03-22T01:42:47.561Z,10.70
2023-03-22T01:45:13.996Z,10.51
2023-03-22T01:47:55.414Z,10.61
2023-03-22T01:50:23.407Z,10.72
2023-03-22T01:52:50.998Z,10.54
2023-03-22T01:55:18.301Z,10.67
2023-03-22T01:57:45.076Z,10.51
2023-03-22T02:00:16.044Z,10.66
2023-03-22T02:02:43.886Z,10.70
2023-03-22T02:05:12.333Z,10.43
2023-03-22T02:07:41.087Z,10.31
2023-03-22T02:10:16.652Z,10.45
2023-03-22T02:13:17.725Z,10.29
2023-03-22T02:16:06.571Z,10.38
2023-03-22T02:18:50.655Z,10.64
2023-03-22T02:21:42.072Z,10.66
2023-03-22T02:24:38.361Z,10.75
2023-03-22T02:27:28.059Z,10.76
2023-03-22T02:30:04.953Z,10.84
2023-03-22T02:32:43.556Z,10.92
2023-03-22T02:35:47.727Z,10.38
2023-03-22T02:38:46.199Z,10.61
2023-03-22T02:41:26.317Z,10.83
2023-03-22T02:44:12.926Z,10.68
2023-03-22T02:46:47.039Z,11.28
2023-03-22T02:49:23.666Z,11.22
2023-03-22T02:52:03.868Z,10.93
2023-03-22T02:54:38.095Z,11.06
2023-03-22T02:57:32.551Z,11.21
2023-03-22T03:00:00.433Z,11.16
2023-03-22T03:02:28.336Z,11.36
2023-03-22T03:04:56.149Z,11.12
2023-03-22T03:07:25.929Z,11.33
2023-03-22T03:09:53.102Z,11.30
2023-03-22T03:12:28.096Z,10.98
2023-03-22T03:14:54.895Z,11.54
2023-03-22T03:17:40.042Z,11.58
2023-03-22T03:20:16.847Z,11.59
2023-03-22T03:22:46.704Z,11.50
2023-03-22T03:25:38.444Z,11.33
2023-03-22T03:28:11.432Z,11.48
2023-03-22T03:30:48.498Z,11.44
2023-03-22T03:33:17.756Z,11.10
2023-03-22T03:35:49.812Z,11.29
2023-03-22T03:38:19.399Z,11.31
2023-03-22T03:40:49.713Z,11.26
2023-03-22T03:43:16.589Z,11.40
2023-03-22T03:45:43.144Z,11.35
2023-03-22T03:48:14.971Z,11.55
2023-03-22T03:50:42.090Z,11.55
2023-03-22T03:53:08.685Z,11.21
2023-03-22T03:55:35.490Z,11.64
2023-03-22T03:58:01.980Z,11.58
2023-03-22T04:00:28.472Z,11.49
2023-03-22T04:02:55.025Z,11.62
2023-03-22T04:05:21.480Z,11.26
2023-03-22T04:07:47.930Z,11.51
2023-03-22T04:10:14.396Z,11.22
2023-03-22T04:12:40.862Z,11.31
2023-03-22T04:15:07.898Z,11.39
2023-03-22T04:17:34.417Z,11.41
2023-03-22T04:20:05.305Z,11.21
2023-03-22T04:22:34.696Z,11.22
2023-03-22T04:25:01.628Z,11.14
2023-03-22T04:27:28.251Z,11.24
2023-03-22T04:29:55.879Z,11.33
2023-03-22T04:32:25.277Z,11.44
2023-03-22T04:34:53.020Z,11.38
2023-03-22T04:37:20.030Z,11.26
2023-03-22T04:39:46.540Z,11.51
2023-03-22T04:42:13.019Z,11.55
2023-03-22T04:44:39.492Z,11.45
2023-03-22T04:47:06.015Z,11.28
2023-03-22T04:49:32.837Z,11.44
2023-03-22T04:51:59.340Z,11.12
2023-03-22T04:54:25.871Z,11.05
2023-03-22T04:56:52.500Z,11.34
2023-03-22T04:59:20.382Z,11.49
2023-03-22T05:01:47.888Z,11.37
2023-03-22T05:04:15.035Z,11.50
2023-03-22T05:06:41.510Z,11.49
2023-03-22T05:09:08.881Z,11.18
2023-03-22T05:11:36.276Z,11.40
2023-03-22T05:14:03.107Z,11.04
2023-03-22T05:16:29.686Z,11.38
2023-03-22T05:18:56.659Z,11.32
2023-03-22T05:21:36.817Z,11.23
2023-03-22T05:24:03.598Z,11.66
2023-03-22T05:26:30.068Z,11.38
2023-03-22T05:28:56.664Z,11.45
2023-03-22T05:31:23.429Z,11.56
2023-03-22T05:33:51.580Z,11.31
2023-03-22T05:36:19.766Z,11.35
2023-03-22T05:38:46.630Z,11.48
2023-03-22T05:41:13.880Z,11.34
2023-03-22T05:43:40.855Z,11.37
2023-03-22T05:46:08.459Z,11.51
2023-03-22T05:48:36.335Z,11.57
2023-03-22T05:51:05.570Z,11.75
2023-03-22T05:53:33.098Z,11.51
2023-03-22T05:56:02.391Z,11.50
2023-03-22T05:58:30.848Z,11.92
2023-03-22T06:01:01.002Z,11.68
2023-03-22T06:03:28.499Z,11.62
2023-03-22T06:05:55.138Z,11.21
2023-03-22T06:08:24.760Z,11.29
2023-03-22T06:10:53.354Z,11.46
2023-03-22T06:13:20.783Z,11.68
2023-03-22T06:15:47.309Z,11.66
2023-03-22T06:18:13.974Z,11.61
2023-03-22T06:20:41.559Z,11.58
2023-03-22T06:23:08.565Z,11.67
2023-03-22T06:25:35.053Z,11.73
2023-03-22T06:28:01.704Z,11.57
2023-03-22T06:30:28.220Z,11.46
2023-03-22T06:32:55.028Z,11.41
2023-03-22T06:35:21.550Z,11.50
2023-03-22T06:37:48.058Z,11.51
2023-03-22T06:40:15.434Z,11.90
2023-03-22T06:42:41.908Z,11.98
2023-03-22T06:45:08.944Z,11.90
2023-03-22T06:47:35.604Z,11.64
2023-03-22T06:50:02.081Z,12.00
2023-03-22T06:52:28.506Z,11.77
2023-03-22T06:54:55.040Z,11.72
2023-03-22T06:57:21.581Z,11.82
2023-03-22T06:59:48.096Z,11.87
2023-03-22T07:02:14.764Z,12.14
2023-03-22T07:04:41.308Z,12.33
2023-03-22T07:07:07.804Z,11.84
2023-03-22T07:09:34.295Z,11.98
2023-03-22T07:12:00.774Z,12.11
2023-03-22T07:14:27.316Z,12.17
2023-03-22T07:16:53.772Z,12.17
2023-03-22T07:19:20.316Z,11.72
2023-03-22T07:21:46.825Z,12.29
2023-03-22T07:24:13.662Z,12.68
2023-03-22T07:26:40.751Z,12.20
2023-03-22T07:29:07.289Z,12.55
2023-03-22T07:31:37.765Z,12.29
2023-03-22T07:34:04.548Z,12.24
2023-03-22T07:36:31.459Z,12.24
2023-03-22T07:38:58.011Z,12.27
2023-03-22T07:41:25.797Z,12.53
2023-03-22T07:43:58.234Z,12.45
2023-03-22T07:46:26.803Z,12.77
2023-03-22T07:48:53.308Z,12.18
2023-03-22T07:51:19.768Z,12.60
2023-03-22T07:53:46.244Z,12.55
2023-03-22T07:56:12.721Z,12.24
2023-03-22T07:58:39.322Z,12.36
2023-03-22T08:01:09.052Z,12.74
2023-03-22T08:03:36.475Z,12.39
2023-03-22T08:06:08.144Z,12.50
2023-03-22T08:08:36.853Z,12.70
2023-03-22T08:11:04.536Z,13.28
2023-03-22T08:13:31.088Z,12.99
2023-03-22T08:15:57.640Z,13.38
2023-03-22T08:18:24.130Z,13.15
2023-03-22T08:20:56.316Z,13.29
2023-03-22T08:23:38.540Z,13.30
2023-03-22T08:26:07.992Z,12.90
2023-03-22T08:28:34.463Z,13.31
2023-03-22T08:31:00.957Z,12.97
2023-03-22T08:33:28.640Z,12.86
2023-03-22T08:36:08.424Z,13.16
2023-03-22T08:38:35.041Z,13.18
2023-03-22T08:41:01.654Z,13.19
2023-03-22T08:43:28.110Z,13.48
2023-03-22T08:45:54.738Z,13.91
2023-03-22T08:48:21.302Z,13.48
2023-03-22T08:50:47.811Z,13.56
2023-03-22T08:53:14.333Z,13.59
2023-03-22T08:55:44.838Z,13.54
2023-03-22T08:58:12.850Z,13.52
2023-03-22T09:00:48.725Z,13.78
2023-03-22T09:03:16.240Z,13.11
2023-03-22T09:05:42.981Z,13.51
2023-03-22T09:08:18.206Z,13.30
2023-03-22T09:10:51.585Z,13.79
2023-03-22T09:13:18.834Z,13.51
2023-03-22T09:15:45.406Z,13.80
2023-03-22T09:18:12.089Z,13.94
2023-03-22T09:20:39.123Z,14.07
2023-03-22T09:23:05.950Z,13.87
2023-03-22T09:25:32.481Z,13.77
2023-03-22T09:27:58.964Z,13.62
2023-03-22T09:30:25.504Z,13.71
2023-03-22T09:32:52.012Z,14.30
2023-03-22T09:35:18.705Z,13.75
2023-03-22T09:37:45.642Z,14.23
2023-03-22T09:40:12.963Z,14.58
2023-03-22T09:42:45.817Z,14.31
2023-03-22T09:45:19.540Z,14.50
2023-03-22T09:47:49.386Z,14.70
2023-03-22T09:50:20.762Z,15.24
2023-03-22T09:52:47.683Z,14.62
2023-03-22T09:55:19.792Z,14.48
2023-03-22T09:57:53.665Z,14.14
2023-03-22T10:00:29.419Z,14.20
2023-03-22T10:02:59.052Z,14.38
2023-03-22T10:05:36.308Z,14.45
2023-03-22T10:08:24.335Z,14.54
2023-03-22T10:10:52.550Z,15.26
2023-03-22T10:13:25.033Z,14.97
2023-03-22T10:15:54.172Z,14.67
2023-03-22T10:18:32.100Z,14.79
2023-03-22T10:21:04.532Z,14.84
2023-03-22T10:23:39.276Z,15.39
2023-03-22T10:26:07.693Z,15.02
2023-03-22T10:28:37.847Z,15.12
2023-03-22T10:31:05.945Z,14.86
2023-03-22T10:33:37.955Z,14.77
2023-03-22T10:36:06.769Z,14.82
2023-03-22T10:38:34.785Z,14.82
2023-03-22T10:41:01.732Z,15.49
2023-03-22T10:43:36.867Z,15.04
2023-03-22T10:46:07.090Z,14.44
2023-03-22T10:48:35.616Z,14.69
2023-03-22T10:51:03.356Z,15.11
2023-03-22T10:53:32.535Z,14.70
2023-03-22T10:55:59.220Z,14.47
2023-03-22T10:58:31.225Z,14.80
2023-03-22T11:01:00.380Z,14.81
2023-03-22T11:03:31.694Z,14.62
2023-03-22T11:06:18.798Z,14.84
2023-03-22T11:08:50.874Z,14.86
2023-03-22T11:11:34.282Z,14.68
2023-03-22T11:14:23.128Z,14.70
2023-03-22T11:16:56.336Z,14.50
2023-03-22T11:19:26.655Z,15.21
2023-03-22T11:21:54.956Z,15.27
2023-03-22T11:24:24.899Z,14.75
2023-03-22T11:27:18.241Z,15.21
2023-03-22T11:29:47.286Z,14.87
2023-03-22T11:32:26.279Z,14.71
2023-03-22T11:35:26.613Z,14.89
2023-03-22T11:37:55.591Z,15.11
2023-03-22T11:40:27.292Z,15.58
2023-03-22T11:43:16.556Z,15.88
2023-03-22T11:45:44.372Z,15.05
2023-03-22T11:48:25.711Z,15.75
2023-03-22T11:50:54.657Z,15.60
2023-03-22T11:53:25.368Z,15.58
2023-03-22T11:55:54.670Z,15.75
2023-03-22T11:58:45.522Z,15.15
2023-03-22T12:01:16.799Z,14.90
2023-03-22T12:03:44.127Z,14.89
2023-03-22T12:06:19.857Z,15.20
2023-03-22T12:08:52.233Z,15.61
2023-03-22T12:11:26.799Z,15.13
2023-03-22T12:14:00.233Z,15.43
2023-03-22T12:16:44.166Z,14.87
2023-03-22T12:19:36.252Z,14.53
2023-03-22T12:22:02.738Z,14.98
2023-03-22T12:24:31.651Z,15.50
2023-03-22T12:27:01.191Z,15.38
2023-03-22T12:29:28.350Z,14.88
2023-03-22T12:32:01.767Z,15.01
2023-03-22T12:34:48.156Z,14.94
2023-03-22T12:37:18.304Z,14.62
2023-03-22T12:40:05.887Z,14.63
2023-03-22T12:42:51.834Z,15.01
2023-03-22T12:45:26.768Z,14.62
2023-03-22T12:48:02.685Z,14.61
2023-03-22T12:50:48.941Z,14.20
2023-03-22T12:53:17.848Z,14.36
2023-03-22T12:55:46.164Z,13.74
2023-03-22T12:58:16.112Z,14.04
2023-03-22T13:00:55.368Z,14.59
2023-03-22T13:03:29.014Z,14.03
2023-03-22T13:06:26.052Z,14.27
2023-03-22T13:09:08.908Z,14.44
2023-03-22T13:11:35.840Z,14.10
2023-03-22T13:14:02.457Z,13.47
2023-03-22T13:16:49.088Z,13.67
2023-03-22T13:19:26.706Z,13.55
2023-03-22T13:22:14.120Z,13.76
2023-03-22T13:25:06.491Z,14.13
2023-03-22T13:28:02.242Z,13.46
2023-03-22T13:30:33.445Z,13.95
2023-03-22T13:33:08.582Z,13.62
2023-03-22T13:35:39.386Z,14.07
2023-03-22T13:38:15.147Z,14.00
2023-03-22T13:41:04.824Z,14.05
2023-03-22T13:43:46.913Z,13.38
2023-03-22T13:46:16.645Z,13.39
2023-03-22T13:48:43.307Z,14.05
2023-03-22T13:51:31.932Z,13.82
2023-03-22T13:54:07.620Z,13.45
2023-03-22T13:56:56.393Z,13.20
2023-03-22T13:59:33.867Z,12.96
2023-03-22T14:02:15.679Z,13.32
2023-03-22T14:05:05.624Z,13.18
2023-03-22T14:07:40.704Z,13.41
2023-03-22T14:10:20.550Z,13.67
2023-03-22T14:12:50.416Z,12.98
2023-03-22T14:15:23.884Z,13.20
2023-03-22T14:18:03.485Z,13.26
2023-03-22T14:20:37.884Z,12.87
